Airfield :
LOGIN :

Register | Disclaimer

   EN    FR    IT 

 










Legend :    VFR   Marginal VFR   IFR   Intensive IFR   Very Intensive IFR
Visi :
Ceiling :
>= 8 km
>= 3000ft
5 to 8 km
1000 to 3000 ft
1500m to 5 km
500 to 1000 ft
800 to 1500m
200 to 500 ft
< 800m
< 200 ft
Symbols :   Thunderstorms  Fog  Heavy snow  Heavy precipitations  Wind > 20 kt
SIGMETs :     Misc.  Thunderstorms  Icing  Turbulence  Mountain Waves  Volcanic Ashes







- Airport Elevation : 656 ft
- IATA code : CMN


GMMN - Casablanca Mohammed V

CURRENT METAR :
  • 241600Z 34012KT 8000 NSC 26/14 Q1015 NOSIG

EXPIRED METARs :
  • 241530Z 35011KT 330V030 CAVOK 26/14 Q1015 NOSIG
  • 241500Z 35013KT 320V020 CAVOK 27/15 Q1015 NOSIG
  • 241430Z 36012KT 320V050 CAVOK 28/15 Q1015 NOSIG
  • 241400Z 01011KT 330V040 CAVOK 28/14 Q1014 NOSIG
  • 241330Z 02007KT 340V100 CAVOK 28/13 Q1015 NOSIG

TAF TAF GMMN
Valid from the 24 at 12:00 until the 25 at 18:00 UTC


241100Z 2412/2518 04012KT CAVOK
BECMG 2420/2424 34006KT SCT016
PROB30
TEMPO 2504/2507 4000 BR SCT008
BECMG 2510/2512 02010KT CAVOK
No reported NOTAMs for that airfield.



MET'MAP, your aeronautical weather chart ! - Copyright ORBIFLY December 2007 - Disclaimer

ORBIFLY MET'MAP TEAM :

Programming & Development : Alexandra Zaïnal
Concept & Development : Baudouin d'Aumeries
Co-Development & Prog : Marc-Olivier Méhu
Technical & hardware support : Manuel Goepfert

Contact : metmap@orbifly.com




SOURCES & CREDITS :

   NOAA